sensor_id;sensor_type;location;lat;lon;timestamp;temperature;humidity
86002;DHT22;76581;51.988;5.854;2024-02-14T12:05:13;19.60;55.70
86002;DHT22;76581;51.988;5.854;2024-02-14T12:06:14;18.40;59.50
86002;DHT22;76581;51.988;5.854;2024-02-14T12:07:16;17.70;63.50
86002;DHT22;76581;51.988;5.854;2024-02-14T12:08:17;17.10;65.10
86002;DHT22;76581;51.988;5.854;2024-02-14T12:09:18;16.60;68.40
86002;DHT22;76581;51.988;5.854;2024-02-14T12:10:19;16.00;70.70
86002;DHT22;76581;51.988;5.854;2024-02-14T12:11:22;15.60;71.60
86002;DHT22;76581;51.988;5.854;2024-02-14T12:12:22;15.10;74.00
86002;DHT22;76581;51.988;5.854;2024-02-14T12:13:24;14.80;76.60
86002;DHT22;76581;51.988;5.854;2024-02-14T12:14:24;14.50;77.50
86002;DHT22;76581;51.988;5.854;2024-02-14T12:15:28;14.20;80.50
86002;DHT22;76581;51.988;5.854;2024-02-14T12:16:29;14.00;81.70
86002;DHT22;76581;51.988;5.854;2024-02-14T12:17:30;13.80;82.50
86002;DHT22;76581;51.988;5.854;2024-02-14T12:18:30;13.60;83.20
86002;DHT22;76581;51.988;5.854;2024-02-14T12:19:31;13.50;83.70
86002;DHT22;76581;51.988;5.854;2024-02-14T12:20:33;13.30;84.20
86002;DHT22;76581;51.988;5.854;2024-02-14T12:21:38;13.20;85.90
86002;DHT22;76581;51.988;5.854;2024-02-14T12:22:40;13.10;86.60
86002;DHT22;76581;51.988;5.854;2024-02-14T12:23:41;13.10;87.30
86002;DHT22;76581;51.988;5.854;2024-02-14T12:24:42;13.00;87.30
86002;DHT22;76581;51.988;5.854;2024-02-14T12:25:44;12.90;88.20
86002;DHT22;76581;51.988;5.854;2024-02-14T12:26:46;12.90;88.60
86002;DHT22;76581;51.988;5.854;2024-02-14T12:27:52;12.80;88.20
86002;DHT22;76581;51.988;5.854;2024-02-14T12:28:53;12.80;88.50
86002;DHT22;76581;51.988;5.854;2024-02-14T12:29:53;12.80;89.50
86002;DHT22;76581;51.988;5.854;2024-02-14T12:30:54;12.70;89.60
86002;DHT22;76581;51.988;5.854;2024-02-14T12:32:05;12.70;90.00
86002;DHT22;76581;51.988;5.854;2024-02-14T12:33:06;12.70;90.20
86002;DHT22;76581;51.988;5.854;2024-02-14T12:34:11;12.60;90.20
86002;DHT22;76581;51.988;5.854;2024-02-14T12:35:11;12.60;89.90
86002;DHT22;76581;51.988;5.854;2024-02-14T12:36:12;12.60;90.20
86002;DHT22;76581;51.988;5.854;2024-02-14T12:37:13;12.60;90.30
86002;DHT22;76581;51.988;5.854;2024-02-14T12:38:15;12.50;90.70
86002;DHT22;76581;51.988;5.854;2024-02-14T12:39:15;12.50;90.70
86002;DHT22;76581;51.988;5.854;2024-02-14T12:40:16;12.50;90.60
86002;DHT22;76581;51.988;5.854;2024-02-14T12:41:16;12.50;90.70
86002;DHT22;76581;51.988;5.854;2024-02-14T12:42:17;12.50;90.90
86002;DHT22;76581;51.988;5.854;2024-02-14T12:43:18;12.40;91.00
86002;DHT22;76581;51.988;5.854;2024-02-14T12:44:19;12.40;91.00
86002;DHT22;76581;51.988;5.854;2024-02-14T12:45:19;12.40;91.00
86002;DHT22;76581;51.988;5.854;2024-02-14T12:46:20;12.40;91.10
86002;DHT22;76581;51.988;5.854;2024-02-14T12:47:21;12.40;91.10
86002;DHT22;76581;51.988;5.854;2024-02-14T12:48:23;12.40;91.20
86002;DHT22;76581;51.988;5.854;2024-02-14T12:49:26;12.40;91.30
86002;DHT22;76581;51.988;5.854;2024-02-14T12:50:27;12.40;91.10
86002;DHT22;76581;51.988;5.854;2024-02-14T12:51:28;12.40;90.90
86002;DHT22;76581;51.988;5.854;2024-02-14T12:52:29;12.40;91.10
86002;DHT22;76581;51.988;5.854;2024-02-14T12:53:29;12.40;91.40
86002;DHT22;76581;51.988;5.854;2024-02-14T12:54:30;12.40;91.40
86002;DHT22;76581;51.988;5.854;2024-02-14T12:55:30;12.30;91.50
86002;DHT22;76581;51.988;5.854;2024-02-14T12:56:31;12.30;91.50
86002;DHT22;76581;51.988;5.854;2024-02-14T12:57:32;12.30;91.50
86002;DHT22;76581;51.988;5.854;2024-02-14T12:58:33;12.30;91.50
86002;DHT22;76581;51.988;5.854;2024-02-14T12:59:34;12.30;91.60
86002;DHT22;76581;51.988;5.854;2024-02-14T13:00:34;12.30;91.50
86002;DHT22;76581;51.988;5.854;2024-02-14T13:01:35;12.30;91.30
86002;DHT22;76581;51.988;5.854;2024-02-14T13:02:35;12.30;91.50
86002;DHT22;76581;51.988;5.854;2024-02-14T13:03:36;12.30;91.70
86002;DHT22;76581;51.988;5.854;2024-02-14T13:04:36;12.30;91.70
86002;DHT22;76581;51.988;5.854;2024-02-14T13:05:37;12.30;91.70
86002;DHT22;76581;51.988;5.854;2024-02-14T13:06:38;12.30;91.70
86002;DHT22;76581;51.988;5.854;2024-02-14T13:07:38;12.30;91.90
86002;DHT22;76581;51.988;5.854;2024-02-14T13:08:39;12.30;91.90
86002;DHT22;76581;51.988;5.854;2024-02-14T13:09:40;12.30;92.00
86002;DHT22;76581;51.988;5.854;2024-02-14T13:10:40;12.30;91.70
86002;DHT22;76581;51.988;5.854;2024-02-14T13:11:42;12.30;91.90
86002;DHT22;76581;51.988;5.854;2024-02-14T13:12:43;12.30;92.10
86002;DHT22;76581;51.988;5.854;2024-02-14T13:13:45;12.20;91.80
86002;DHT22;76581;51.988;5.854;2024-02-14T13:14:46;12.20;92.00
86002;DHT22;76581;51.988;5.854;2024-02-14T13:15:47;12.30;92.20
86002;DHT22;76581;51.988;5.854;2024-02-14T13:16:47;12.20;92.00
86002;DHT22;76581;51.988;5.854;2024-02-14T13:17:48;12.20;92.00
86002;DHT22;76581;51.988;5.854;2024-02-14T13:18:49;12.20;92.00
86002;DHT22;76581;51.988;5.854;2024-02-14T13:19:49;12.20;92.30
86002;DHT22;76581;51.988;5.854;2024-02-14T13:20:50;12.20;92.20
86002;DHT22;76581;51.988;5.854;2024-02-14T13:21:57;12.20;92.20
86002;DHT22;76581;51.988;5.854;2024-02-14T13:22:58;12.20;92.10
86002;DHT22;76581;51.988;5.854;2024-02-14T13:23:59;12.20;92.30
86002;DHT22;76581;51.988;5.854;2024-02-14T13:24:59;12.20;92.50
86002;DHT22;76581;51.988;5.854;2024-02-14T13:26:03;12.20;92.40
86002;DHT22;76581;51.988;5.854;2024-02-14T13:27:04;12.20;92.30
86002;DHT22;76581;51.988;5.854;2024-02-14T13:28:05;12.20;92.20
86002;DHT22;76581;51.988;5.854;2024-02-14T13:29:06;12.20;92.30
86002;DHT22;76581;51.988;5.854;2024-02-14T13:30:08;12.20;92.40
86002;DHT22;76581;51.988;5.854;2024-02-14T13:31:08;12.20;92.60
86002;DHT22;76581;51.988;5.854;2024-02-14T13:32:10;12.20;92.50
86002;DHT22;76581;51.988;5.854;2024-02-14T13:33:11;12.20;92.40
86002;DHT22;76581;51.988;5.854;2024-02-14T13:34:12;12.20;92.50
86002;DHT22;76581;51.988;5.854;2024-02-14T13:35:14;12.20;92.40
86002;DHT22;76581;51.988;5.854;2024-02-14T13:36:15;12.20;92.60
86002;DHT22;76581;51.988;5.854;2024-02-14T13:37:17;12.30;92.60
86002;DHT22;76581;51.988;5.854;2024-02-14T13:38:17;12.20;92.60
86002;DHT22;76581;51.988;5.854;2024-02-14T13:39:18;12.20;92.60
86002;DHT22;76581;51.988;5.854;2024-02-14T13:40:18;12.20;92.50
86002;DHT22;76581;51.988;5.854;2024-02-14T13:41:19;12.20;92.40
86002;DHT22;76581;51.988;5.854;2024-02-14T13:42:19;12.20;92.40
86002;DHT22;76581;51.988;5.854;2024-02-14T13:43:20;12.20;92.60
86002;DHT22;76581;51.988;5.854;2024-02-14T13:44:21;12.20;92.60
86002;DHT22;76581;51.988;5.854;2024-02-14T13:45:21;12.20;92.60
86002;DHT22;76581;51.988;5.854;2024-02-14T13:46:23;12.20;92.80
86002;DHT22;76581;51.988;5.854;2024-02-14T13:47:26;12.20;92.60
86002;DHT22;76581;51.988;5.854;2024-02-14T13:48:27;12.20;92.60
86002;DHT22;76581;51.988;5.854;2024-02-14T13:49:27;12.20;92.60
86002;DHT22;76581;51.988;5.854;2024-02-14T13:50:28;12.20;92.70
86002;DHT22;76581;51.988;5.854;2024-02-14T13:51:28;12.20;92.70
86002;DHT22;76581;51.988;5.854;2024-02-14T13:52:29;12.20;92.70
86002;DHT22;76581;51.988;5.854;2024-02-14T13:53:31;12.20;92.70
86002;DHT22;76581;51.988;5.854;2024-02-14T13:54:31;12.20;92.60
86002;DHT22;76581;51.988;5.854;2024-02-14T13:55:32;12.20;92.60
86002;DHT22;76581;51.988;5.854;2024-02-14T13:56:32;12.20;92.70
86002;DHT22;76581;51.988;5.854;2024-02-14T13:57:37;12.20;92.70
86002;DHT22;76581;51.988;5.854;2024-02-14T13:58:40;12.20;92.80
86002;DHT22;76581;51.988;5.854;2024-02-14T13:59:41;12.20;92.90
86002;DHT22;76581;51.988;5.854;2024-02-14T14:00:42;12.20;92.90
86002;DHT22;76581;51.988;5.854;2024-02-14T14:01:43;12.20;92.60
86002;DHT22;76581;51.988;5.854;2024-02-14T14:02:43;12.20;92.90
86002;DHT22;76581;51.988;5.854;2024-02-14T14:03:44;12.20;92.80
86002;DHT22;76581;51.988;5.854;2024-02-14T14:04:45;12.20;92.90
86002;DHT22;76581;51.988;5.854;2024-02-14T14:05:45;12.30;92.80
86002;DHT22;76581;51.988;5.854;2024-02-14T14:06:46;12.30;92.80
86002;DHT22;76581;51.988;5.854;2024-02-14T14:07:47;12.20;92.90
86002;DHT22;76581;51.988;5.854;2024-02-14T14:08:48;12.20;92.90
86002;DHT22;76581;51.988;5.854;2024-02-14T14:09:49;12.20;92.80
86002;DHT22;76581;51.988;5.854;2024-02-14T14:10:49;12.20;92.80
86002;DHT22;76581;51.988;5.854;2024-02-14T14:11:50;12.20;92.70
86002;DHT22;76581;51.988;5.854;2024-02-14T14:12:52;12.30;92.60
86002;DHT22;76581;51.988;5.854;2024-02-14T14:13:52;12.20;92.70
86002;DHT22;76581;51.988;5.854;2024-02-14T14:14:53;12.20;92.80
86002;DHT22;76581;51.988;5.854;2024-02-14T14:15:53;12.20;92.80
86002;DHT22;76581;51.988;5.854;2024-02-14T14:16:55;12.20;93.00
86002;DHT22;76581;51.988;5.854;2024-02-14T14:17:57;12.20;92.90
86002;DHT22;76581;51.988;5.854;2024-02-14T14:18:58;12.20;92.90
86002;DHT22;76581;51.988;5.854;2024-02-14T14:19:59;12.20;93.00
86002;DHT22;76581;51.988;5.854;2024-02-14T14:21:00;12.20;92.90
86002;DHT22;76581;51.988;5.854;2024-02-14T14:22:01;12.20;92.90
86002;DHT22;76581;51.988;5.854;2024-02-14T14:23:01;12.30;92.90
86002;DHT22;76581;51.988;5.854;2024-02-14T14:24:04;12.30;92.90
86002;DHT22;76581;51.988;5.854;2024-02-14T14:25:05;12.20;92.80
86002;DHT22;76581;51.988;5.854;2024-02-14T14:26:08;12.30;93.00
86002;DHT22;76581;51.988;5.854;2024-02-14T14:27:08;12.30;92.90
86002;DHT22;76581;51.988;5.854;2024-02-14T14:28:13;12.30;92.90
86002;DHT22;76581;51.988;5.854;2024-02-14T14:29:14;12.30;93.00
86002;DHT22;76581;51.988;5.854;2024-02-14T14:30:15;12.30;92.90
86002;DHT22;76581;51.988;5.854;2024-02-14T14:31:16;12.30;92.90
86002;DHT22;76581;51.988;5.854;2024-02-14T14:32:16;12.30;92.90
86002;DHT22;76581;51.988;5.854;2024-02-14T14:33:17;12.30;92.90
86002;DHT22;76581;51.988;5.854;2024-02-14T14:34:17;12.30;92.90
86002;DHT22;76581;51.988;5.854;2024-02-14T14:35:19;12.30;92.90
86002;DHT22;76581;51.988;5.854;2024-02-14T14:36:20;12.30;92.90
86002;DHT22;76581;51.988;5.854;2024-02-14T14:37:20;12.30;92.90
86002;DHT22;76581;51.988;5.854;2024-02-14T14:38:23;12.30;92.90
86002;DHT22;76581;51.988;5.854;2024-02-14T14:39:24;12.30;92.90
86002;DHT22;76581;51.988;5.854;2024-02-14T14:40:24;12.30;92.90
86002;DHT22;76581;51.988;5.854;2024-02-14T14:41:25;12.30;93.00
86002;DHT22;76581;51.988;5.854;2024-02-14T14:42:25;12.30;92.90
86002;DHT22;76581;51.988;5.854;2024-02-14T14:43:26;12.30;92.80
86002;DHT22;76581;51.988;5.854;2024-02-14T14:44:28;12.30;92.90
86002;DHT22;76581;51.988;5.854;2024-02-14T14:45:30;12.30;92.80
86002;DHT22;76581;51.988;5.854;2024-02-14T14:46:31;12.30;92.70
86002;DHT22;76581;51.988;5.854;2024-02-14T14:47:32;12.40;92.90
86002;DHT22;76581;51.988;5.854;2024-02-14T14:48:32;12.30;92.80
86002;DHT22;76581;51.988;5.854;2024-02-14T14:49:33;12.30;92.80
86002;DHT22;76581;51.988;5.854;2024-02-14T14:50:35;12.30;92.80
86002;DHT22;76581;51.988;5.854;2024-02-14T14:51:38;12.30;92.80
86002;DHT22;76581;51.988;5.854;2024-02-14T14:52:38;12.40;92.90
86002;DHT22;76581;51.988;5.854;2024-02-14T14:53:39;12.40;92.80
86002;DHT22;76581;51.988;5.854;2024-02-14T14:54:40;12.40;92.80
86002;DHT22;76581;51.988;5.854;2024-02-14T14:55:53;12.40;92.90
86002;DHT22;76581;51.988;5.854;2024-02-14T14:56:56;12.40;92.70
86002;DHT22;76581;51.988;5.854;2024-02-14T14:57:56;12.40;92.80
86002;DHT22;76581;51.988;5.854;2024-02-14T14:58:57;12.40;92.70
86002;DHT22;76581;51.988;5.854;2024-02-14T15:00:00;12.40;92.70
86002;DHT22;76581;51.988;5.854;2024-02-14T15:01:00;12.40;92.70
86002;DHT22;76581;51.988;5.854;2024-02-14T15:02:04;12.40;92.70
86002;DHT22;76581;51.988;5.854;2024-02-14T15:03:06;12.40;92.70
86002;DHT22;76581;51.988;5.854;2024-02-14T15:04:07;12.40;92.70
86002;DHT22;76581;51.988;5.854;2024-02-14T15:05:12;12.40;92.80
86002;DHT22;76581;51.988;5.854;2024-02-14T15:06:12;12.40;92.70
86002;DHT22;76581;51.988;5.854;2024-02-14T15:07:15;12.40;92.70
86002;DHT22;76581;51.988;5.854;2024-02-14T15:08:16;12.40;92.70
86002;DHT22;76581;51.988;5.854;2024-02-14T15:09:25;12.40;92.80
86002;DHT22;76581;51.988;5.854;2024-02-14T15:10:25;12.40;92.70
86002;DHT22;76581;51.988;5.854;2024-02-14T15:11:26;12.40;92.70
86002;DHT22;76581;51.988;5.854;2024-02-14T15:12:27;12.50;92.60
86002;DHT22;76581;51.988;5.854;2024-02-14T15:13:27;12.40;92.70
86002;DHT22;76581;51.988;5.854;2024-02-14T15:14:28;12.40;92.60
86002;DHT22;76581;51.988;5.854;2024-02-14T15:15:28;12.50;92.60
86002;DHT22;76581;51.988;5.854;2024-02-14T15:16:29;12.50;92.60
86002;DHT22;76581;51.988;5.854;2024-02-14T15:17:30;12.50;92.60
86002;DHT22;76581;51.988;5.854;2024-02-14T15:18:31;12.50;92.50
86002;DHT22;76581;51.988;5.854;2024-02-14T15:19:32;12.50;92.50
86002;DHT22;76581;51.988;5.854;2024-02-14T15:20:32;12.50;92.50
86002;DHT22;76581;51.988;5.854;2024-02-14T15:21:36;12.50;92.50
86002;DHT22;76581;51.988;5.854;2024-02-14T15:22:37;12.50;92.50
86002;DHT22;76581;51.988;5.854;2024-02-14T15:23:37;12.50;92.50
86002;DHT22;76581;51.988;5.854;2024-02-14T15:24:38;12.50;92.50
86002;DHT22;76581;51.988;5.854;2024-02-14T15:25:40;12.50;92.40
86002;DHT22;76581;51.988;5.854;2024-02-14T15:26:41;12.50;92.40
86002;DHT22;76581;51.988;5.854;2024-02-14T15:27:53;12.50;92.40
86002;DHT22;76581;51.988;5.854;2024-02-14T15:28:57;12.50;92.40
86002;DHT22;76581;51.988;5.854;2024-02-14T15:30:18;12.50;92.40
86002;DHT22;76581;51.988;5.854;2024-02-14T15:31:36;12.50;92.40
86002;DHT22;76581;51.988;5.854;2024-02-14T15:32:56;12.50;92.40
86002;DHT22;76581;51.988;5.854;2024-02-14T15:34:15;12.50;92.30
86002;DHT22;76581;51.988;5.854;2024-02-14T15:35:15;12.50;92.30
86002;DHT22;76581;51.988;5.854;2024-02-14T15:36:16;12.50;92.30
86002;DHT22;76581;51.988;5.854;2024-02-14T15:37:17;12.50;92.30
86002;DHT22;76581;51.988;5.854;2024-02-14T15:38:18;12.60;92.30
86002;DHT22;76581;51.988;5.854;2024-02-14T15:39:19;12.60;92.30
86002;DHT22;76581;51.988;5.854;2024-02-14T15:40:19;12.50;92.20
86002;DHT22;76581;51.988;5.854;2024-02-14T15:41:20;12.60;92.20
86002;DHT22;76581;51.988;5.854;2024-02-14T15:42:21;12.60;92.60
86002;DHT22;76581;51.988;5.854;2024-02-14T15:43:22;12.50;92.20
86002;DHT22;76581;51.988;5.854;2024-02-14T15:44:22;12.50;92.20
86002;DHT22;76581;51.988;5.854;2024-02-14T15:45:23;12.60;92.20
86002;DHT22;76581;51.988;5.854;2024-02-14T15:46:23;12.60;92.20
86002;DHT22;76581;51.988;5.854;2024-02-14T15:47:24;12.60;92.20
86002;DHT22;76581;51.988;5.854;2024-02-14T15:48:25;12.60;92.20
86002;DHT22;76581;51.988;5.854;2024-02-14T15:49:28;12.60;92.20
86002;DHT22;76581;51.988;5.854;2024-02-14T15:50:29;12.60;92.20
86002;DHT22;76581;51.988;5.854;2024-02-14T15:51:29;12.60;92.20
86002;DHT22;76581;51.988;5.854;2024-02-14T15:52:30;12.60;92.10
86002;DHT22;76581;51.988;5.854;2024-02-14T15:53:32;12.60;92.20
86002;DHT22;76581;51.988;5.854;2024-02-14T15:54:33;12.60;92.20
86002;DHT22;76581;51.988;5.854;2024-02-14T15:55:34;12.50;92.10
86002;DHT22;76581;51.988;5.854;2024-02-14T15:56:35;12.60;92.20
86002;DHT22;76581;51.988;5.854;2024-02-14T15:57:35;12.60;92.10
86002;DHT22;76581;51.988;5.854;2024-02-14T15:58:36;12.60;92.10
86002;DHT22;76581;51.988;5.854;2024-02-14T15:59:37;12.60;92.10
86002;DHT22;76581;51.988;5.854;2024-02-14T16:00:38;12.60;92.10
86002;DHT22;76581;51.988;5.854;2024-02-14T16:01:39;12.60;92.10
86002;DHT22;76581;51.988;5.854;2024-02-14T16:02:40;12.60;92.10
86002;DHT22;76581;51.988;5.854;2024-02-14T16:03:40;12.60;92.10
86002;DHT22;76581;51.988;5.854;2024-02-14T16:04:41;12.60;92.10
86002;DHT22;76581;51.988;5.854;2024-02-14T16:05:41;12.60;92.00
86002;DHT22;76581;51.988;5.854;2024-02-14T16:06:43;12.60;92.00
86002;DHT22;76581;51.988;5.854;2024-02-14T16:07:44;12.60;92.00
86002;DHT22;76581;51.988;5.854;2024-02-14T16:08:44;12.60;92.00
86002;DHT22;76581;51.988;5.854;2024-02-14T16:09:45;12.60;92.00
86002;DHT22;76581;51.988;5.854;2024-02-14T16:10:46;12.60;92.00
86002;DHT22;76581;51.988;5.854;2024-02-14T16:11:48;12.60;92.00
86002;DHT22;76581;51.988;5.854;2024-02-14T16:12:50;12.60;92.00
86002;DHT22;76581;51.988;5.854;2024-02-14T16:13:51;12.60;92.00
86002;DHT22;76581;51.988;5.854;2024-02-14T16:14:51;12.60;92.00
86002;DHT22;76581;51.988;5.854;2024-02-14T16:15:52;12.60;92.00
86002;DHT22;76581;51.988;5.854;2024-02-14T16:16:52;12.60;92.00
86002;DHT22;76581;51.988;5.854;2024-02-14T16:17:53;12.60;92.00
86002;DHT22;76581;51.988;5.854;2024-02-14T16:18:53;12.60;92.00
86002;DHT22;76581;51.988;5.854;2024-02-14T16:19:54;12.60;92.00
86002;DHT22;76581;51.988;5.854;2024-02-14T16:20:55;12.60;92.00
86002;DHT22;76581;51.988;5.854;2024-02-14T16:21:55;12.60;92.00
86002;DHT22;76581;51.988;5.854;2024-02-14T16:22:56;12.70;92.00
86002;DHT22;76581;51.988;5.854;2024-02-14T16:23:57;12.70;92.00
86002;DHT22;76581;51.988;5.854;2024-02-14T16:24:58;12.60;91.90
86002;DHT22;76581;51.988;5.854;2024-02-14T16:25:58;12.60;91.90
86002;DHT22;76581;51.988;5.854;2024-02-14T16:27:00;12.60;91.90
86002;DHT22;76581;51.988;5.854;2024-02-14T16:28:01;12.60;91.90
86002;DHT22;76581;51.988;5.854;2024-02-14T16:29:02;12.60;91.90
86002;DHT22;76581;51.988;5.854;2024-02-14T16:30:04;12.60;91.90
86002;DHT22;76581;51.988;5.854;2024-02-14T16:31:06;12.60;91.90
86002;DHT22;76581;51.988;5.854;2024-02-14T16:32:06;12.60;91.90
86002;DHT22;76581;51.988;5.854;2024-02-14T16:33:07;12.60;91.90
86002;DHT22;76581;51.988;5.854;2024-02-14T16:34:08;12.60;91.90
86002;DHT22;76581;51.988;5.854;2024-02-14T16:35:09;12.60;92.00
86002;DHT22;76581;51.988;5.854;2024-02-14T16:36:09;12.60;91.90
86002;DHT22;76581;51.988;5.854;2024-02-14T16:37:10;12.60;91.90
86002;DHT22;76581;51.988;5.854;2024-02-14T16:38:17;12.60;91.90
86002;DHT22;76581;51.988;5.854;2024-02-14T16:39:18;12.60;91.90
86002;DHT22;76581;51.988;5.854;2024-02-14T16:40:19;12.60;91.90
86002;DHT22;76581;51.988;5.854;2024-02-14T16:41:19;12.60;91.90
86002;DHT22;76581;51.988;5.854;2024-02-14T16:42:23;12.60;91.90
86002;DHT22;76581;51.988;5.854;2024-02-14T16:43:23;12.60;91.90
86002;DHT22;76581;51.988;5.854;2024-02-14T16:44:24;12.60;91.90
86002;DHT22;76581;51.988;5.854;2024-02-14T16:45:24;12.60;91.90
86002;DHT22;76581;51.988;5.854;2024-02-14T16:46:25;12.60;91.90
86002;DHT22;76581;51.988;5.854;2024-02-14T16:47:26;12.60;92.30
86002;DHT22;76581;51.988;5.854;2024-02-14T16:48:27;12.60;91.90
86002;DHT22;76581;51.988;5.854;2024-02-14T16:49:27;12.60;91.90
86002;DHT22;76581;51.988;5.854;2024-02-14T16:50:28;12.60;92.00
86002;DHT22;76581;51.988;5.854;2024-02-14T16:51:29;12.60;91.90
86002;DHT22;76581;51.988;5.854;2024-02-14T16:52:29;12.60;91.90
86002;DHT22;76581;51.988;5.854;2024-02-14T16:53:30;12.60;92.00
86002;DHT22;76581;51.988;5.854;2024-02-14T16:54:31;12.60;91.90
86002;DHT22;76581;51.988;5.854;2024-02-14T16:55:31;12.60;91.90
86002;DHT22;76581;51.988;5.854;2024-02-14T16:56:32;12.60;91.90
86002;DHT22;76581;51.988;5.854;2024-02-14T16:57:33;12.60;91.90
86002;DHT22;76581;51.988;5.854;2024-02-14T16:58:34;12.60;92.00
86002;DHT22;76581;51.988;5.854;2024-02-14T16:59:40;12.60;92.00
86002;DHT22;76581;51.988;5.854;2024-02-14T17:00:41;12.60;91.90
86002;DHT22;76581;51.988;5.854;2024-02-14T17:01:42;12.60;92.00
86002;DHT22;76581;51.988;5.854;2024-02-14T17:02:43;12.60;92.00
86002;DHT22;76581;51.988;5.854;2024-02-14T17:03:45;12.60;92.00
86002;DHT22;76581;51.988;5.854;2024-02-14T17:04:46;12.60;92.00
86002;DHT22;76581;51.988;5.854;2024-02-14T17:05:46;12.60;92.00
86002;DHT22;76581;51.988;5.854;2024-02-14T17:06:47;12.60;92.10
86002;DHT22;76581;51.988;5.854;2024-02-14T17:07:48;12.60;92.00
86002;DHT22;76581;51.988;5.854;2024-02-14T17:08:48;12.60;92.00
86002;DHT22;76581;51.988;5.854;2024-02-14T17:09:49;12.60;92.00
86002;DHT22;76581;51.988;5.854;2024-02-14T17:10:49;12.60;92.00
86002;DHT22;76581;51.988;5.854;2024-02-14T17:11:50;12.60;92.00
86002;DHT22;76581;51.988;5.854;2024-02-14T17:12:51;12.60;92.00
86002;DHT22;76581;51.988;5.854;2024-02-14T17:13:51;12.60;92.00
86002;DHT22;76581;51.988;5.854;2024-02-14T17:14:53;12.60;92.00
86002;DHT22;76581;51.988;5.854;2024-02-14T17:15:55;12.70;92.00
86002;DHT22;76581;51.988;5.854;2024-02-14T17:16:56;12.70;92.00
86002;DHT22;76581;51.988;5.854;2024-02-14T17:17:58;12.70;92.00
86002;DHT22;76581;51.988;5.854;2024-02-14T17:18:58;12.70;92.00
86002;DHT22;76581;51.988;5.854;2024-02-14T17:19:59;12.70;92.00
86002;DHT22;76581;51.988;5.854;2024-02-14T17:20:59;12.70;92.00
86002;DHT22;76581;51.988;5.854;2024-02-14T17:22:00;12.70;92.00
86002;DHT22;76581;51.988;5.854;2024-02-14T17:23:01;12.70;92.00
86002;DHT22;76581;51.988;5.854;2024-02-14T17:24:01;12.70;92.00
86002;DHT22;76581;51.988;5.854;2024-02-14T17:25:02;12.70;92.00
86002;DHT22;76581;51.988;5.854;2024-02-14T17:26:02;12.70;92.00
86002;DHT22;76581;51.988;5.854;2024-02-14T17:27:03;12.70;92.00
86002;DHT22;76581;51.988;5.854;2024-02-14T17:28:04;12.70;92.00
86002;DHT22;76581;51.988;5.854;2024-02-14T17:29:05;12.70;91.90
86002;DHT22;76581;51.988;5.854;2024-02-14T17:30:06;12.70;92.00
86002;DHT22;76581;51.988;5.854;2024-02-14T17:31:08;12.70;91.90
86002;DHT22;76581;51.988;5.854;2024-02-14T17:32:09;12.70;91.90
86002;DHT22;76581;51.988;5.854;2024-02-14T17:33:09;12.70;91.90
86002;DHT22;76581;51.988;5.854;2024-02-14T17:34:10;12.70;91.90
86002;DHT22;76581;51.988;5.854;2024-02-14T17:35:10;12.70;91.90
86002;DHT22;76581;51.988;5.854;2024-02-14T17:36:11;12.70;91.90
86002;DHT22;76581;51.988;5.854;2024-02-14T17:37:11;12.70;91.90
86002;DHT22;76581;51.988;5.854;2024-02-14T17:38:12;12.70;91.90
86002;DHT22;76581;51.988;5.854;2024-02-14T17:39:13;12.70;91.90
86002;DHT22;76581;51.988;5.854;2024-02-14T17:40:14;12.70;91.90
86002;DHT22;76581;51.988;5.854;2024-02-14T17:41:15;12.70;91.90
86002;DHT22;76581;51.988;5.854;2024-02-14T17:42:15;12.70;91.90
86002;DHT22;76581;51.988;5.854;2024-02-14T17:43:16;12.70;91.90
86002;DHT22;76581;51.988;5.854;2024-02-14T17:44:17;12.70;91.90
86002;DHT22;76581;51.988;5.854;2024-02-14T17:45:18;12.70;91.90
86002;DHT22;76581;51.988;5.854;2024-02-14T17:46:19;12.70;91.90
86002;DHT22;76581;51.988;5.854;2024-02-14T17:47:20;12.70;91.90
86002;DHT22;76581;51.988;5.854;2024-02-14T17:48:22;12.70;91.90
86002;DHT22;76581;51.988;5.854;2024-02-14T17:49:22;12.70;91.90
86002;DHT22;76581;51.988;5.854;2024-02-14T17:50:23;12.70;91.90
86002;DHT22;76581;51.988;5.854;2024-02-14T17:51:25;12.70;91.90
86002;DHT22;76581;51.988;5.854;2024-02-14T17:52:29;12.70;91.90
86002;DHT22;76581;51.988;5.854;2024-02-14T17:53:29;12.70;91.90
86002;DHT22;76581;51.988;5.854;2024-02-14T17:54:30;12.70;91.90
86002;DHT22;76581;51.988;5.854;2024-02-14T17:55:31;12.70;91.90
86002;DHT22;76581;51.988;5.854;2024-02-14T17:56:33;12.70;91.90
86002;DHT22;76581;51.988;5.854;2024-02-14T17:57:33;12.70;91.90
86002;DHT22;76581;51.988;5.854;2024-02-14T17:58:34;12.70;91.90
86002;DHT22;76581;51.988;5.854;2024-02-14T17:59:37;12.70;91.90
86002;DHT22;76581;51.988;5.854;2024-02-14T18:00:38;12.70;91.90
86002;DHT22;76581;51.988;5.854;2024-02-14T18:01:39;12.80;91.90
86002;DHT22;76581;51.988;5.854;2024-02-14T18:02:40;12.70;91.90
86002;DHT22;76581;51.988;5.854;2024-02-14T18:03:41;12.70;92.20
86002;DHT22;76581;51.988;5.854;2024-02-14T18:04:41;12.80;91.90
86002;DHT22;76581;51.988;5.854;2024-02-14T18:05:42;12.70;92.20
86002;DHT22;76581;51.988;5.854;2024-02-14T18:06:43;12.70;91.90
86002;DHT22;76581;51.988;5.854;2024-02-14T18:07:44;12.80;91.90
86002;DHT22;76581;51.988;5.854;2024-02-14T18:08:45;12.70;91.90
86002;DHT22;76581;51.988;5.854;2024-02-14T18:09:45;12.70;91.90
86002;DHT22;76581;51.988;5.854;2024-02-14T18:10:46;12.70;91.90
86002;DHT22;76581;51.988;5.854;2024-02-14T18:11:47;12.80;91.90
86002;DHT22;76581;51.988;5.854;2024-02-14T18:12:47;12.70;91.90
86002;DHT22;76581;51.988;5.854;2024-02-14T18:13:48;12.80;91.90
86002;DHT22;76581;51.988;5.854;2024-02-14T18:14:52;12.70;91.90
86002;DHT22;76581;51.988;5.854;2024-02-14T18:15:53;12.80;91.90
86002;DHT22;76581;51.988;5.854;2024-02-14T18:16:54;12.70;91.90
86002;DHT22;76581;51.988;5.854;2024-02-14T18:17:54;12.70;91.90
86002;DHT22;76581;51.988;5.854;2024-02-14T18:18:55;12.80;91.90
86002;DHT22;76581;51.988;5.854;2024-02-14T18:19:55;12.70;91.90
86002;DHT22;76581;51.988;5.854;2024-02-14T18:20:56;12.80;91.90
86002;DHT22;76581;51.988;5.854;2024-02-14T18:21:57;12.80;91.90
86002;DHT22;76581;51.988;5.854;2024-02-14T18:22:58;12.80;91.90
86002;DHT22;76581;51.988;5.854;2024-02-14T18:23:58;12.70;91.90
86002;DHT22;76581;51.988;5.854;2024-02-14T18:24:59;12.70;91.90
86002;DHT22;76581;51.988;5.854;2024-02-14T18:25:59;12.70;91.90
86002;DHT22;76581;51.988;5.854;2024-02-14T18:27:00;12.70;91.90
86002;DHT22;76581;51.988;5.854;2024-02-14T18:28:00;12.70;91.90
86002;DHT22;76581;51.988;5.854;2024-02-14T18:29:03;12.70;91.90
86002;DHT22;76581;51.988;5.854;2024-02-14T18:30:04;12.70;91.90
86002;DHT22;76581;51.988;5.854;2024-02-14T18:31:04;12.70;91.90
86002;DHT22;76581;51.988;5.854;2024-02-14T18:32:08;12.70;91.90